createdAt,value
2022-11-19T00:00:02.920Z,-1.50
2022-11-19T00:01:02.920Z,-1.50
2022-11-19T00:02:02.909Z,-1.50
2022-11-19T00:03:03.060Z,-1.50
2022-11-19T00:04:02.945Z,-1.50
2022-11-19T00:05:02.976Z,-1.50
2022-11-19T00:06:03.019Z,-1.50
2022-11-19T00:07:03.164Z,-1.50
2022-11-19T00:08:03.110Z,-1.50
2022-11-19T00:09:03.291Z,-1.50
2022-11-19T00:10:03.237Z,-1.50
2022-11-19T00:11:06.717Z,-1.40
2022-11-19T00:12:03.106Z,-1.40
2022-11-19T00:13:03.060Z,-1.40
2022-11-19T00:14:03.044Z,-1.40
2022-11-19T00:15:03.145Z,-1.40
2022-11-19T00:16:03.123Z,-1.40
2022-11-19T00:17:03.265Z,-1.40
2022-11-19T00:18:03.239Z,-1.50
2022-11-19T00:19:03.346Z,-1.50
2022-11-19T00:20:03.331Z,-1.50
2022-11-19T00:21:03.211Z,-1.50
2022-11-19T00:22:03.246Z,-1.50
2022-11-19T00:23:03.297Z,-1.50
2022-11-19T00:24:03.390Z,-1.50
2022-11-19T00:25:03.357Z,-1.50
2022-11-19T00:26:03.358Z,-1.60
2022-11-19T00:27:03.443Z,-1.50
2022-11-19T00:28:03.523Z,-1.60
2022-11-19T00:29:03.425Z,-1.60
2022-11-19T00:30:05.487Z,-1.60
2022-11-19T00:31:03.520Z,-1.60
2022-11-19T00:32:03.443Z,-1.60
2022-11-19T00:33:03.442Z,-1.60
2022-11-19T00:34:03.369Z,-1.60
2022-11-19T00:35:03.474Z,-1.60
2022-11-19T00:36:03.572Z,-1.60
2022-11-19T00:37:02.595Z,-1.60
2022-11-19T00:38:02.626Z,-1.60
2022-11-19T00:39:02.802Z,-1.60
2022-11-19T00:40:02.750Z,-1.60
2022-11-19T00:41:02.738Z,-1.60
2022-11-19T00:42:02.827Z,-1.60
2022-11-19T00:43:02.807Z,-1.60
2022-11-19T00:44:02.742Z,-1.60
2022-11-19T00:45:02.817Z,-1.60
2022-11-19T00:46:02.854Z,-1.60
2022-11-19T00:47:02.830Z,-1.60
2022-11-19T00:48:02.815Z,-1.60
2022-11-19T00:49:02.846Z,-1.60
2022-11-19T00:50:02.861Z,-1.60
2022-11-19T00:51:02.835Z,-1.60
2022-11-19T00:52:02.909Z,-1.60
2022-11-19T00:53:02.886Z,-1.60
2022-11-19T00:54:02.779Z,-1.60
2022-11-19T00:55:02.975Z,-1.60
2022-11-19T00:56:02.909Z,-1.60
2022-11-19T00:57:03.040Z,-1.60
2022-11-19T00:58:02.940Z,-1.60
2022-11-19T00:59:02.864Z,-1.60
2022-11-19T01:00:02.942Z,-1.60
2022-11-19T01:01:03.131Z,-1.60
2022-11-19T01:02:03.150Z,-1.60
2022-11-19T01:03:03.190Z,-1.60
2022-11-19T01:04:03.134Z,-1.60
2022-11-19T01:05:03.234Z,-1.60
2022-11-19T01:06:03.340Z,-1.60
2022-11-19T01:07:03.522Z,-1.70
2022-11-19T01:08:03.340Z,-1.70
2022-11-19T01:09:03.421Z,-1.70
2022-11-19T01:10:03.668Z,-1.70
2022-11-19T01:11:02.707Z,-1.70
2022-11-19T01:12:02.666Z,-1.70
2022-11-19T01:13:02.672Z,-1.70
2022-11-19T01:14:02.724Z,-1.70
2022-11-19T01:15:02.726Z,-1.70
2022-11-19T01:16:02.684Z,-1.70
2022-11-19T01:17:02.748Z,-1.70
2022-11-19T01:18:02.739Z,-1.70
2022-11-19T01:19:02.759Z,-1.70
2022-11-19T01:20:02.735Z,-1.70
2022-11-19T01:21:02.800Z,-1.70
2022-11-19T01:22:02.900Z,-1.70
2022-11-19T01:23:02.907Z,-1.70
2022-11-19T01:24:02.685Z,-1.70
2022-11-19T01:25:02.623Z,-1.70
2022-11-19T01:26:02.646Z,-1.70
2022-11-19T01:27:02.698Z,-1.70
2022-11-19T01:28:03.619Z,-1.70
2022-11-19T01:29:03.549Z,-1.70
2022-11-19T01:30:02.629Z,-1.70
2022-11-19T01:31:02.966Z,-1.70
2022-11-19T01:32:02.888Z,-1.70
2022-11-19T01:33:02.939Z,-1.70
2022-11-19T01:34:03.062Z,-1.80
2022-11-19T01:35:03.011Z,-1.70
2022-11-19T01:36:03.077Z,-1.80
2022-11-19T01:37:03.060Z,-1.70
2022-11-19T01:38:03.059Z,-1.70
2022-11-19T01:39:03.180Z,-1.80
2022-11-19T01:40:03.287Z,-1.80
2022-11-19T01:41:03.310Z,-1.80
2022-11-19T01:42:03.283Z,-1.70
2022-11-19T01:43:03.387Z,-1.80
2022-11-19T01:44:03.338Z,-1.80
2022-11-19T01:45:03.421Z,-1.80
2022-11-19T01:46:03.346Z,-1.80
2022-11-19T01:47:03.498Z,-1.80
2022-11-19T01:48:03.388Z,-1.80
2022-11-19T01:49:03.409Z,-1.80
2022-11-19T01:50:03.635Z,-1.90
2022-11-19T01:51:02.618Z,-1.90
2022-11-19T01:52:02.610Z,-1.90
2022-11-19T01:53:02.622Z,-1.80
2022-11-19T01:54:02.728Z,-1.90
2022-11-19T01:55:02.701Z,-1.90
2022-11-19T01:56:02.677Z,-1.90
2022-11-19T01:57:02.810Z,-1.90
2022-11-19T01:58:02.723Z,-1.90
2022-11-19T01:59:02.777Z,-1.90
2022-11-19T02:00:02.936Z,-1.90
2022-11-19T02:01:03.076Z,-1.90
2022-11-19T02:02:03.051Z,-1.90
2022-11-19T02:03:03.058Z,-1.90
2022-11-19T02:04:03.097Z,-1.90
2022-11-19T02:05:03.000Z,-1.90
2022-11-19T02:06:03.003Z,-1.90
2022-11-19T02:07:03.222Z,-1.90
2022-11-19T02:08:03.162Z,-1.90
2022-11-19T02:09:03.318Z,-1.90
2022-11-19T02:10:03.312Z,-1.90
2022-11-19T02:11:03.348Z,-1.90
2022-11-19T02:12:03.275Z,-2.00
2022-11-19T02:13:03.280Z,-2.00
2022-11-19T02:14:03.330Z,-2.00
2022-11-19T02:15:03.250Z,-2.00
2022-11-19T02:16:03.336Z,-2.00
2022-11-19T02:17:03.466Z,-2.00
2022-11-19T02:18:03.534Z,-2.00
2022-11-19T02:19:03.635Z,-2.00
2022-11-19T02:20:03.606Z,-2.00
2022-11-19T02:21:03.564Z,-2.00
2022-11-19T02:22:03.604Z,-2.00
2022-11-19T02:23:02.658Z,-2.00
2022-11-19T02:24:02.684Z,-2.00
2022-11-19T02:25:02.742Z,-2.00
2022-11-19T02:26:02.870Z,-2.00
2022-11-19T02:27:02.767Z,-2.10
2022-11-19T02:28:02.857Z,-2.10
2022-11-19T02:29:02.867Z,-2.10
2022-11-19T02:30:02.791Z,-2.10
2022-11-19T02:31:02.825Z,-2.10
2022-11-19T02:32:02.864Z,-2.10
2022-11-19T02:33:02.891Z,-2.10
2022-11-19T02:34:03.165Z,-2.10
2022-11-19T02:35:03.256Z,-2.10
2022-11-19T02:36:03.199Z,-2.10
2022-11-19T02:37:03.365Z,-2.10
2022-11-19T02:38:03.229Z,-2.10
2022-11-19T02:39:03.220Z,-2.10
2022-11-19T02:40:03.317Z,-2.10
2022-11-19T02:41:03.385Z,-2.10
2022-11-19T02:42:03.334Z,-2.10
2022-11-19T02:43:03.275Z,-2.10
2022-11-19T02:44:03.268Z,-2.10
2022-11-19T02:45:03.355Z,-2.10
2022-11-19T02:46:03.458Z,-2.10
2022-11-19T02:47:03.384Z,-2.10
2022-11-19T02:48:03.441Z,-2.10
2022-11-19T02:49:03.428Z,-2.10
2022-11-19T02:50:03.427Z,-2.10
2022-11-19T02:51:03.429Z,-2.10
2022-11-19T02:52:03.385Z,-2.10
2022-11-19T02:53:03.332Z,-2.10
2022-11-19T02:54:03.398Z,-2.10
2022-11-19T02:55:03.428Z,-2.10
2022-11-19T02:56:03.472Z,-2.10
2022-11-19T02:57:03.526Z,-2.10
2022-11-19T02:58:03.600Z,-2.10
2022-11-19T02:59:03.569Z,-2.10
2022-11-19T03:00:02.626Z,-2.10
2022-11-19T03:01:02.699Z,-2.10
2022-11-19T03:02:02.692Z,-2.10
2022-11-19T03:03:02.723Z,-2.10
2022-11-19T03:04:02.748Z,-2.10
2022-11-19T03:05:02.833Z,-2.10
2022-11-19T03:06:02.885Z,-2.10
2022-11-19T03:07:02.936Z,-2.20
2022-11-19T03:08:02.967Z,-2.20
2022-11-19T03:09:02.912Z,-2.20
2022-11-19T03:10:02.895Z,-2.20
2022-11-19T03:11:03.064Z,-2.20
2022-11-19T03:12:02.990Z,-2.20
2022-11-19T03:13:03.020Z,-2.20
2022-11-19T03:14:03.634Z,-2.20
2022-11-19T03:15:03.601Z,-2.20
2022-11-19T03:16:03.589Z,-2.20
2022-11-19T03:17:03.641Z,-2.20
2022-11-19T03:18:02.675Z,-2.20
2022-11-19T03:19:02.647Z,-2.20
2022-11-19T03:20:02.701Z,-2.20
2022-11-19T03:21:02.799Z,-2.20
2022-11-19T03:22:02.748Z,-2.20
2022-11-19T03:23:02.874Z,-2.30
2022-11-19T03:24:02.847Z,-2.30
2022-11-19T03:25:02.902Z,-2.30
2022-11-19T03:26:02.994Z,-2.30
2022-11-19T03:27:02.957Z,-2.30
2022-11-19T03:28:03.025Z,-2.30
2022-11-19T03:29:03.021Z,-2.30
2022-11-19T03:30:03.157Z,-2.30
2022-11-19T03:31:03.084Z,-2.30
2022-11-19T03:32:03.035Z,-2.30
2022-11-19T03:33:03.109Z,-2.30
2022-11-19T03:34:03.121Z,-2.30
2022-11-19T03:35:03.102Z,-2.30
2022-11-19T03:36:03.028Z,-2.30
2022-11-19T03:37:03.064Z,-2.30
2022-11-19T03:38:03.135Z,-2.30
2022-11-19T03:39:03.066Z,-2.30
2022-11-19T03:40:03.149Z,-2.30
2022-11-19T03:41:03.201Z,-2.40
2022-11-19T03:42:03.262Z,-2.40
2022-11-19T03:43:03.220Z,-2.40
2022-11-19T03:44:03.226Z,-2.40
2022-11-19T03:45:03.264Z,-2.40
2022-11-19T03:46:03.234Z,-2.40
2022-11-19T03:47:03.332Z,-2.40
2022-11-19T03:48:03.395Z,-2.40
2022-11-19T03:49:03.449Z,-2.40
2022-11-19T03:50:03.409Z,-2.40
2022-11-19T03:51:03.378Z,-2.40
2022-11-19T03:52:03.353Z,-2.40
2022-11-19T03:53:04.645Z,-2.40
2022-11-19T03:54:03.440Z,-2.40
2022-11-19T03:55:03.442Z,-2.40
2022-11-19T03:56:03.446Z,-2.40
2022-11-19T03:57:03.520Z,-2.40
2022-11-19T03:58:03.488Z,-2.30
2022-11-19T03:59:03.642Z,-2.40
2022-11-19T04:00:03.593Z,-2.30
2022-11-19T04:01:03.614Z,-2.30
2022-11-19T04:02:02.810Z,-2.30
2022-11-19T04:03:02.678Z,-2.30
2022-11-19T04:04:02.674Z,-2.30
2022-11-19T04:05:02.656Z,-2.30
2022-11-19T04:06:02.691Z,-2.30
2022-11-19T04:07:02.859Z,-2.30
2022-11-19T04:08:02.797Z,-2.40
2022-11-19T04:09:02.698Z,-2.40
2022-11-19T04:10:02.804Z,-2.40
2022-11-19T04:12:02.824Z,-2.40
2022-11-19T04:13:02.752Z,-2.40
2022-11-19T04:14:02.852Z,-2.40
2022-11-19T04:15:02.712Z,-2.50
2022-11-19T04:16:02.734Z,-2.50
2022-11-19T04:17:02.804Z,-2.50
2022-11-19T04:18:02.842Z,-2.50
2022-11-19T04:19:02.862Z,-2.50
2022-11-19T04:20:02.850Z,-2.50
2022-11-19T04:21:02.860Z,-2.50
2022-11-19T04:22:02.824Z,-2.50
2022-11-19T04:23:02.844Z,-2.50
2022-11-19T04:24:02.845Z,-2.50
2022-11-19T04:25:02.850Z,-2.50
2022-11-19T04:26:02.854Z,-2.50
2022-11-19T04:27:03.000Z,-2.50
2022-11-19T04:28:02.987Z,-2.50
2022-11-19T04:29:03.010Z,-2.50
2022-11-19T04:30:03.098Z,-2.50
2022-11-19T04:31:03.055Z,-2.50
2022-11-19T04:32:03.114Z,-2.50
2022-11-19T04:33:03.160Z,-2.50
2022-11-19T04:34:03.065Z,-2.50
2022-11-19T04:35:03.123Z,-2.50
2022-11-19T04:36:03.219Z,-2.50
2022-11-19T04:37:03.213Z,-2.50
2022-11-19T04:38:03.152Z,-2.50
2022-11-19T04:39:03.225Z,-2.50
2022-11-19T04:40:03.291Z,-2.50
2022-11-19T04:41:03.294Z,-2.50
2022-11-19T04:42:03.332Z,-2.50
2022-11-19T04:43:03.341Z,-2.50
2022-11-19T04:44:03.351Z,-2.50
2022-11-19T04:45:03.362Z,-2.50
2022-11-19T04:46:03.380Z,-2.50
2022-11-19T04:47:03.324Z,-2.50
2022-11-19T04:48:03.457Z,-2.50
2022-11-19T04:49:03.512Z,-2.50
2022-11-19T04:50:03.521Z,-2.60
2022-11-19T04:51:03.469Z,-2.60
2022-11-19T04:52:03.579Z,-2.60
2022-11-19T04:53:03.573Z,-2.60
2022-11-19T04:54:02.666Z,-2.60
2022-11-19T04:55:02.650Z,-2.60
2022-11-19T04:56:02.764Z,-2.60
2022-11-19T04:57:02.849Z,-2.60
2022-11-19T04:58:02.751Z,-2.60
2022-11-19T04:59:02.868Z,-2.60
2022-11-19T05:00:02.819Z,-2.60
2022-11-19T05:01:02.920Z,-2.60
2022-11-19T05:02:03.003Z,-2.60
2022-11-19T05:03:02.906Z,-2.60
2022-11-19T05:04:02.969Z,-2.60
2022-11-19T05:05:02.957Z,-2.60
2022-11-19T05:06:02.927Z,-2.60
2022-11-19T05:07:02.894Z,-2.60
2022-11-19T05:08:03.008Z,-2.60
2022-11-19T05:09:02.884Z,-2.60
2022-11-19T05:10:02.940Z,-2.60
2022-11-19T05:11:03.071Z,-2.60
2022-11-19T05:12:03.078Z,-2.60
2022-11-19T05:13:03.007Z,-2.60
2022-11-19T05:14:03.010Z,-2.70
2022-11-19T05:15:02.890Z,-2.70
2022-11-19T05:16:03.181Z,-2.70
2022-11-19T05:17:03.175Z,-2.60
2022-11-19T05:18:03.190Z,-2.70
2022-11-19T05:19:03.199Z,-2.70
2022-11-19T05:20:03.252Z,-2.70
2022-11-19T05:21:03.234Z,-2.70
2022-11-19T05:22:03.180Z,-2.70
2022-11-19T05:23:03.147Z,-2.70
2022-11-19T05:24:03.217Z,-2.70
2022-11-19T05:25:03.402Z,-2.70
2022-11-19T05:26:03.506Z,-2.70
2022-11-19T05:27:03.546Z,-2.70
2022-11-19T05:28:03.527Z,-2.70
2022-11-19T05:29:03.580Z,-2.70
2022-11-19T05:30:03.554Z,-2.80
2022-11-19T05:31:03.565Z,-2.80
2022-11-19T05:32:03.559Z,-2.80
2022-11-19T05:33:03.583Z,-2.80
2022-11-19T05:34:03.500Z,-2.80
2022-11-19T05:35:02.599Z,-2.80
2022-11-19T05:36:02.705Z,-2.80
2022-11-19T05:37:02.667Z,-2.80
2022-11-19T05:38:02.747Z,-2.80
2022-11-19T05:39:02.803Z,-2.80
2022-11-19T05:40:02.853Z,-2.70
2022-11-19T05:41:03.106Z,-2.70
2022-11-19T05:42:03.108Z,-2.70
2022-11-19T05:43:03.181Z,-2.70
2022-11-19T05:44:03.223Z,-2.80
2022-11-19T05:45:03.193Z,-2.80
2022-11-19T05:46:03.246Z,-2.80
2022-11-19T05:47:03.241Z,-2.80
2022-11-19T05:48:03.318Z,-2.80
2022-11-19T05:49:03.265Z,-2.80
2022-11-19T05:50:03.298Z,-2.80
2022-11-19T05:51:03.407Z,-2.80
2022-11-19T05:52:03.429Z,-2.80
2022-11-19T05:53:03.345Z,-2.80
2022-11-19T05:54:03.551Z,-2.80
2022-11-19T05:55:03.543Z,-2.80
2022-11-19T05:56:03.472Z,-2.80
2022-11-19T05:57:03.431Z,-2.80
2022-11-19T05:58:03.487Z,-2.80
2022-11-19T05:59:03.467Z,-2.80
2022-11-19T06:00:03.491Z,-2.80
2022-11-19T06:01:03.577Z,-2.80
2022-11-19T06:02:03.591Z,-2.80
2022-11-19T06:03:03.603Z,-2.80
2022-11-19T06:04:03.496Z,-2.80
2022-11-19T06:05:03.476Z,-2.80
2022-11-19T06:06:03.457Z,-2.80
2022-11-19T06:07:03.512Z,-2.80
2022-11-19T06:08:03.350Z,-2.80
2022-11-19T06:09:03.248Z,-2.80
2022-11-19T06:10:03.223Z,-2.80
2022-11-19T06:11:03.192Z,-2.80
2022-11-19T06:12:03.248Z,-2.90
2022-11-19T06:13:03.305Z,-2.90
2022-11-19T06:14:03.386Z,-2.90
2022-11-19T06:15:03.414Z,-2.90
2022-11-19T06:16:03.451Z,-2.90
2022-11-19T06:17:03.556Z,-2.90
2022-11-19T06:18:03.518Z,-2.90
2022-11-19T06:19:03.509Z,-2.90
2022-11-19T06:20:03.529Z,-2.90
2022-11-19T06:21:05.975Z,-2.90
2022-11-19T06:22:03.513Z,-2.90
2022-11-19T06:23:03.547Z,-3.00
2022-11-19T06:24:02.627Z,-2.90
2022-11-19T06:25:02.618Z,-2.90
2022-11-19T06:26:02.634Z,-3.00
2022-11-19T06:27:02.649Z,-3.00
2022-11-19T06:28:02.691Z,-3.00
2022-11-19T06:29:02.809Z,-3.00
2022-11-19T06:30:02.907Z,-3.00
2022-11-19T06:31:02.989Z,-3.00
2022-11-19T06:32:03.048Z,-3.00
2022-11-19T06:33:03.104Z,-3.00
2022-11-19T06:34:03.188Z,-3.00
2022-11-19T06:35:03.254Z,-3.00
2022-11-19T06:36:03.413Z,-3.00
2022-11-19T06:37:03.524Z,-3.00
2022-11-19T06:38:03.490Z,-3.00
2022-11-19T06:39:03.644Z,-3.10
2022-11-19T06:40:03.509Z,-3.10
2022-11-19T06:41:03.572Z,-3.10
2022-11-19T06:42:03.474Z,-3.10
2022-11-19T06:43:03.516Z,-3.10
2022-11-19T06:44:03.466Z,-3.10
2022-11-19T06:45:03.488Z,-3.10
2022-11-19T06:46:03.625Z,-3.10
2022-11-19T06:47:02.644Z,-3.10
2022-11-19T06:48:02.691Z,-3.10
2022-11-19T06:49:02.651Z,-3.00
2022-11-19T06:50:02.770Z,-3.10
2022-11-19T06:51:02.691Z,-3.10
2022-11-19T06:52:02.714Z,-3.10
2022-11-19T06:53:02.597Z,-3.10
2022-11-19T06:54:02.831Z,-3.10
2022-11-19T06:55:02.825Z,-3.00
2022-11-19T06:56:02.756Z,-3.00
2022-11-19T06:57:02.854Z,-3.00
2022-11-19T06:58:02.772Z,-3.00
2022-11-19T06:59:02.797Z,-3.00
2022-11-19T07:00:02.859Z,-3.00
2022-11-19T07:01:02.792Z,-3.00
2022-11-19T07:02:02.870Z,-3.00
2022-11-19T07:03:02.729Z,-3.00
2022-11-19T07:04:02.728Z,-3.00
2022-11-19T07:05:02.837Z,-3.00
2022-11-19T07:06:02.848Z,-3.00
2022-11-19T07:07:02.944Z,-3.00
2022-11-19T07:08:03.505Z,-3.00
2022-11-19T07:09:02.918Z,-3.00
2022-11-19T07:10:02.919Z,-2.90
2022-11-19T07:11:02.988Z,-2.90
2022-11-19T07:12:02.941Z,-2.90
2022-11-19T07:13:02.957Z,-2.90
2022-11-19T07:14:03.053Z,-2.90
2022-11-19T07:15:04.688Z,-2.90
2022-11-19T07:16:03.097Z,-2.90
2022-11-19T07:17:03.236Z,-2.90
2022-11-19T07:18:03.220Z,-2.90
2022-11-19T07:19:03.316Z,-2.90
2022-11-19T07:20:03.345Z,-2.90
2022-11-19T07:21:03.402Z,-2.90
2022-11-19T07:22:03.428Z,-2.90
2022-11-19T07:23:03.489Z,-2.90
2022-11-19T07:24:03.547Z,-2.90
2022-11-19T07:25:03.440Z,-2.90
2022-11-19T07:26:03.629Z,-2.90
2022-11-19T07:27:02.618Z,-2.90
2022-11-19T07:28:02.779Z,-2.90
2022-11-19T07:29:04.763Z,-2.90
2022-11-19T07:30:02.967Z,-2.90
2022-11-19T07:31:02.954Z,-2.80
2022-11-19T07:32:03.006Z,-2.80
2022-11-19T07:33:03.119Z,-2.80
2022-11-19T07:34:03.107Z,-2.80
2022-11-19T07:35:03.130Z,-2.80
2022-11-19T07:36:03.183Z,-2.80
2022-11-19T07:37:03.317Z,-2.80
2022-11-19T07:38:03.252Z,-2.80
2022-11-19T07:39:03.230Z,-2.80
2022-11-19T07:40:02.714Z,-2.80
2022-11-19T07:41:02.759Z,-2.80
2022-11-19T07:42:02.678Z,-2.80
2022-11-19T07:43:02.630Z,-2.80
2022-11-19T07:44:02.679Z,-2.80
2022-11-19T07:45:02.691Z,-2.80
2022-11-19T07:46:02.620Z,-2.80
2022-11-19T07:47:03.639Z,-2.80
2022-11-19T07:48:02.636Z,-2.80
2022-11-19T07:49:02.626Z,-2.80
2022-11-19T07:50:02.676Z,-2.80
2022-11-19T07:51:02.750Z,-2.70
2022-11-19T07:52:02.773Z,-2.70
2022-11-19T07:53:02.723Z,-2.70
2022-11-19T07:54:02.830Z,-2.70
2022-11-19T07:55:02.758Z,-2.70
2022-11-19T07:56:02.769Z,-2.70
2022-11-19T07:57:02.756Z,-2.70
2022-11-19T07:58:02.784Z,-2.70
2022-11-19T07:59:02.639Z,-2.70
2022-11-19T08:00:02.779Z,-2.70
2022-11-19T08:01:02.757Z,-2.70
2022-11-19T08:02:02.941Z,-2.70
2022-11-19T08:03:02.750Z,-2.70
2022-11-19T08:04:02.839Z,-2.70
2022-11-19T08:05:02.873Z,-2.70
2022-11-19T08:06:02.888Z,-2.70
2022-11-19T08:07:02.883Z,-2.70
2022-11-19T08:08:02.902Z,-2.70
2022-11-19T08:09:02.755Z,-2.70
2022-11-19T08:10:02.819Z,-2.70
2022-11-19T08:11:02.868Z,-2.70
2022-11-19T08:12:02.973Z,-2.70
2022-11-19T08:13:03.277Z,-2.70
2022-11-19T08:14:03.216Z,-2.70
2022-11-19T08:15:03.307Z,-2.70
2022-11-19T08:16:03.417Z,-2.60
2022-11-19T08:17:03.466Z,-2.70
2022-11-19T08:18:03.454Z,-2.70
2022-11-19T08:19:03.605Z,-2.70
2022-11-19T08:20:03.599Z,-2.60
2022-11-19T08:21:03.623Z,-2.60
2022-11-19T08:22:03.533Z,-2.60
2022-11-19T08:23:03.574Z,-2.60
2022-11-19T08:24:03.579Z,-2.60
2022-11-19T08:25:02.734Z,-2.60
2022-11-19T08:26:02.773Z,-2.60
2022-11-19T08:27:02.904Z,-2.60
2022-11-19T08:28:02.840Z,-2.60
2022-11-19T08:29:02.886Z,-2.60
2022-11-19T08:30:02.837Z,-2.60
2022-11-19T08:31:02.961Z,-2.60
2022-11-19T08:32:02.846Z,-2.60
2022-11-19T08:33:02.961Z,-2.60
2022-11-19T08:34:02.885Z,-2.60
2022-11-19T08:35:03.003Z,-2.60
2022-11-19T08:36:02.937Z,-2.60
2022-11-19T08:37:02.935Z,-2.60
2022-11-19T08:38:02.795Z,-2.50
2022-11-19T08:39:02.911Z,-2.60
2022-11-19T08:40:02.791Z,-2.50
2022-11-19T08:41:02.779Z,-2.50
2022-11-19T08:42:02.810Z,-2.50
2022-11-19T08:43:02.970Z,-2.50
2022-11-19T08:44:02.995Z,-2.50
2022-11-19T08:45:02.900Z,-2.50
2022-11-19T08:46:03.022Z,-2.50
2022-11-19T08:47:02.951Z,-2.40
2022-11-19T08:48:02.862Z,-2.40
2022-11-19T08:49:02.817Z,-2.40
2022-11-19T08:50:02.864Z,-2.40
2022-11-19T08:51:03.010Z,-2.40
2022-11-19T08:52:02.905Z,-2.40
2022-11-19T08:53:03.038Z,-2.40
2022-11-19T08:54:03.028Z,-2.40
2022-11-19T08:55:03.025Z,-2.30
2022-11-19T08:56:03.042Z,-2.40
2022-11-19T08:57:03.075Z,-2.30
2022-11-19T08:58:03.088Z,-2.30
2022-11-19T08:59:03.449Z,-2.30
2022-11-19T09:00:06.358Z,-2.30
2022-11-19T09:01:03.366Z,-2.30
2022-11-19T09:02:03.361Z,-2.30
2022-11-19T09:03:03.345Z,-2.30
2022-11-19T09:04:03.399Z,-2.20
2022-11-19T09:05:03.427Z,-2.20
2022-11-19T09:06:03.462Z,-2.20
2022-11-19T09:07:03.483Z,-2.20
2022-11-19T09:08:03.472Z,-2.20
2022-11-19T09:09:03.556Z,-2.20
2022-11-19T09:10:03.514Z,-2.10
2022-11-19T09:11:03.628Z,-2.10
2022-11-19T09:12:03.605Z,-2.10
2022-11-19T09:13:03.600Z,-2.10
2022-11-19T09:14:02.671Z,-2.10
2022-11-19T09:15:02.682Z,-2.10
2022-11-19T09:16:02.764Z,-2.10
2022-11-19T09:17:02.921Z,-2.10
2022-11-19T09:18:02.868Z,-2.10
2022-11-19T09:19:02.977Z,-2.20
2022-11-19T09:20:02.915Z,-2.20
2022-11-19T09:21:02.987Z,-2.10
2022-11-19T09:22:02.977Z,-2.10
2022-11-19T09:23:02.912Z,-2.10
2022-11-19T09:24:02.867Z,-2.10
2022-11-19T09:25:02.781Z,-2.10
2022-11-19T09:26:02.777Z,-2.10
2022-11-19T09:27:02.836Z,-2.10
2022-11-19T09:28:02.818Z,-2.10
2022-11-19T09:29:02.881Z,-2.10
2022-11-19T09:30:02.897Z,-2.10
2022-11-19T09:31:02.941Z,-2.10
2022-11-19T09:32:02.997Z,-2.10
2022-11-19T09:33:02.856Z,-2.10
2022-11-19T09:34:02.852Z,-2.00
2022-11-19T09:35:03.067Z,-2.00
2022-11-19T09:36:02.978Z,-2.10
2022-11-19T09:37:03.022Z,-2.10
2022-11-19T09:38:02.920Z,-2.10
2022-11-19T09:39:02.967Z,-2.10
2022-11-19T09:40:03.019Z,-2.10
2022-11-19T09:41:03.075Z,-2.10
2022-11-19T09:42:02.937Z,-2.10
2022-11-19T09:43:03.053Z,-2.10
2022-11-19T09:44:03.110Z,-2.10
2022-11-19T09:45:02.633Z,-2.10
2022-11-19T09:46:03.660Z,-2.10
2022-11-19T09:47:02.624Z,-2.10
2022-11-19T09:48:02.747Z,-2.10
2022-11-19T09:49:02.730Z,-2.10
2022-11-19T09:50:02.748Z,-2.10
2022-11-19T09:51:02.830Z,-2.10
2022-11-19T09:52:02.837Z,-2.10
2022-11-19T09:53:02.777Z,-2.10
2022-11-19T09:54:02.871Z,-2.10
2022-11-19T09:55:02.951Z,-2.10
2022-11-19T09:56:02.955Z,-2.10
2022-11-19T09:57:04.460Z,-2.10
2022-11-19T09:58:02.831Z,-2.10
2022-11-19T09:59:02.856Z,-2.10
2022-11-19T10:00:02.989Z,-2.00
2022-11-19T10:01:03.062Z,-2.00
2022-11-19T10:02:03.203Z,-2.00
2022-11-19T10:03:03.204Z,-2.00
2022-11-19T10:04:03.349Z,-2.00
2022-11-19T10:05:03.571Z,-2.00
2022-11-19T10:06:03.365Z,-2.00
2022-11-19T10:07:03.446Z,-2.00
2022-11-19T10:08:03.543Z,-2.00
2022-11-19T10:09:03.632Z,-2.00
2022-11-19T10:10:05.357Z,-2.00
2022-11-19T10:11:02.804Z,-2.00
2022-11-19T10:12:02.844Z,-2.00
2022-11-19T10:13:03.003Z,-1.90
2022-11-19T10:14:02.998Z,-1.90
2022-11-19T10:15:03.134Z,-1.90
2022-11-19T10:16:03.127Z,-2.00
2022-11-19T10:17:03.273Z,-2.00
2022-11-19T10:18:03.170Z,-2.00
2022-11-19T10:19:03.328Z,-2.00
2022-11-19T10:20:03.493Z,-2.00
2022-11-19T10:21:03.576Z,-2.00
2022-11-19T10:22:03.495Z,-2.00
2022-11-19T10:23:02.596Z,-2.00
2022-11-19T10:24:02.762Z,-2.00
2022-11-19T10:25:02.897Z,-2.00
2022-11-19T10:26:02.867Z,-2.10
2022-11-19T10:27:07.388Z,-2.10
2022-11-19T10:28:03.033Z,-2.10
2022-11-19T10:29:03.016Z,-2.10
2022-11-19T10:30:03.055Z,-2.10
2022-11-19T10:31:03.443Z,-2.10
2022-11-19T10:32:03.570Z,-2.10
2022-11-19T10:33:02.792Z,-2.10
2022-11-19T10:34:02.737Z,-2.10
2022-11-19T10:35:02.750Z,-2.10
2022-11-19T10:36:02.864Z,-2.10
2022-11-19T10:37:02.906Z,-2.10
2022-11-19T10:38:03.312Z,-2.10
2022-11-19T10:39:03.546Z,-2.10
2022-11-19T10:40:03.526Z,-2.10
2022-11-19T10:41:03.553Z,-2.10
2022-11-19T10:42:03.519Z,-2.10
2022-11-19T10:43:03.664Z,-2.10
2022-11-19T10:44:02.656Z,-2.10
2022-11-19T10:45:02.773Z,-2.10
2022-11-19T10:46:02.704Z,-2.10
2022-11-19T10:47:02.770Z,-2.10
2022-11-19T10:48:07.608Z,-2.10
2022-11-19T10:49:02.843Z,-2.10
2022-11-19T10:50:06.955Z,-2.00
2022-11-19T10:51:02.791Z,-2.00
2022-11-19T10:52:03.021Z,-2.00
2022-11-19T10:53:03.045Z,-2.00
2022-11-19T10:54:03.090Z,-1.90
2022-11-19T10:55:03.195Z,-1.90
2022-11-19T10:56:03.139Z,-1.90
2022-11-19T10:57:03.116Z,-1.90
2022-11-19T10:58:03.146Z,-1.80
2022-11-19T10:59:03.188Z,-1.80
2022-11-19T11:00:03.182Z,-1.80
2022-11-19T11:01:03.355Z,-1.70
2022-11-19T11:02:03.367Z,-1.70
2022-11-19T11:03:03.367Z,-1.70
2022-11-19T11:04:03.494Z,-1.70
2022-11-19T11:05:03.498Z,-1.70
2022-11-19T11:06:03.570Z,-1.70
2022-11-19T11:07:03.548Z,-1.60
2022-11-19T11:08:03.573Z,-1.60
2022-11-19T11:09:03.469Z,-1.60
2022-11-19T11:10:03.584Z,-1.60
2022-11-19T11:11:03.666Z,-1.60
2022-11-19T11:12:03.642Z,-1.50
2022-11-19T11:13:02.640Z,-1.50
2022-11-19T11:14:02.683Z,-1.50
2022-11-19T11:15:02.783Z,-1.50
2022-11-19T11:16:02.804Z,-1.40
2022-11-19T11:17:02.769Z,-1.40
2022-11-19T11:18:02.802Z,-1.40
2022-11-19T11:19:02.738Z,-1.40
2022-11-19T11:20:02.815Z,-1.40
2022-11-19T11:21:02.787Z,-1.40
2022-11-19T11:22:02.916Z,-1.30
2022-11-19T11:23:02.949Z,-1.30
2022-11-19T11:24:03.095Z,-1.30
2022-11-19T11:25:06.976Z,-1.30
2022-11-19T11:26:03.242Z,-1.30
2022-11-19T11:27:03.447Z,-1.30
2022-11-19T11:28:03.399Z,-1.30
2022-11-19T11:29:03.389Z,-1.30
2022-11-19T11:30:03.447Z,-1.20
2022-11-19T11:31:03.442Z,-1.20
2022-11-19T11:32:03.496Z,-1.20
2022-11-19T11:33:06.509Z,-1.20
2022-11-19T11:34:03.462Z,-1.20
2022-11-19T11:35:06.997Z,-1.10
2022-11-19T11:36:03.579Z,-1.10
2022-11-19T11:37:02.644Z,-1.10
2022-11-19T11:38:02.674Z,-1.10
2022-11-19T11:39:02.742Z,-1.10
2022-11-19T11:40:02.818Z,-1.00
2022-11-19T11:41:41.991Z,-1.10
2022-11-19T11:42:06.189Z,-1.00
2022-11-19T11:43:03.598Z,-1.00
2022-11-19T11:44:02.647Z,-1.00
2022-11-19T11:45:02.612Z,-1.00
2022-11-19T11:46:02.740Z,-1.00
2022-11-19T11:47:02.750Z,-0.90
2022-11-19T11:48:02.840Z,-0.90
2022-11-19T11:49:07.067Z,-0.90
2022-11-19T11:50:02.863Z,-0.90
2022-11-19T11:51:02.851Z,-0.80
2022-11-19T11:52:03.522Z,-0.80
2022-11-19T11:53:03.565Z,-0.80
2022-11-19T11:54:03.540Z,-0.80
2022-11-19T11:55:03.634Z,-0.80
2022-11-19T11:56:02.628Z,-0.80
2022-11-19T11:57:02.836Z,-0.80
2022-11-19T11:58:02.856Z,-0.70
2022-11-19T11:59:02.814Z,-0.70
2022-11-19T12:00:02.858Z,-0.70
2022-11-19T12:01:02.961Z,-0.70
2022-11-19T12:02:02.969Z,-0.70
2022-11-19T12:03:02.846Z,-0.60
2022-11-19T12:04:02.994Z,-0.60
2022-11-19T12:05:03.034Z,-0.60
2022-11-19T12:06:03.178Z,-0.60
2022-11-19T12:07:03.265Z,-0.60
2022-11-19T12:08:03.449Z,-0.60
2022-11-19T12:09:03.566Z,-0.60
2022-11-19T12:10:03.547Z,-0.50
2022-11-19T12:11:03.519Z,-0.50
2022-11-19T12:12:03.613Z,-0.50
2022-11-19T12:13:03.590Z,-0.50
2022-11-19T12:14:05.456Z,-0.50
2022-11-19T12:15:02.715Z,-0.50
2022-11-19T12:16:02.689Z,-0.50
2022-11-19T12:17:02.727Z,-0.50
2022-11-19T12:18:02.782Z,-0.50
2022-11-19T12:19:02.896Z,-0.50
2022-11-19T12:20:03.048Z,-0.40
2022-11-19T12:21:04.381Z,-0.40
2022-11-19T12:22:03.135Z,-0.40
2022-11-19T12:23:03.061Z,-0.40
2022-11-19T12:24:03.100Z,-0.40
2022-11-19T12:25:03.092Z,-0.40
2022-11-19T12:26:03.098Z,-0.40
2022-11-19T12:27:03.122Z,-0.40
2022-11-19T12:28:03.073Z,-0.40
2022-11-19T12:29:03.080Z,-0.40
2022-11-19T12:30:03.252Z,-0.40
2022-11-19T12:31:03.202Z,-0.40
2022-11-19T12:32:03.326Z,-0.40
2022-11-19T12:33:03.337Z,-0.40
2022-11-19T12:34:03.446Z,-0.40
2022-11-19T12:35:03.463Z,-0.40
2022-11-19T12:36:03.569Z,-0.40
2022-11-19T12:37:03.624Z,-0.40
2022-11-19T12:38:02.721Z,-0.30
2022-11-19T12:39:02.669Z,-0.30
2022-11-19T12:40:02.609Z,-0.30
2022-11-19T12:41:02.610Z,-0.30
2022-11-19T12:42:02.772Z,-0.30
2022-11-19T12:43:02.825Z,-0.30
2022-11-19T12:44:02.813Z,-0.30
2022-11-19T12:45:02.762Z,-0.30
2022-11-19T12:46:02.853Z,-0.30
2022-11-19T12:47:02.822Z,-0.30
2022-11-19T12:48:02.860Z,-0.40
2022-11-19T12:49:02.843Z,-0.40
2022-11-19T12:50:02.956Z,-0.40
2022-11-19T12:51:02.913Z,-0.40
2022-11-19T12:52:03.004Z,-0.40
2022-11-19T12:53:02.874Z,-0.40